Time;durP1;ratioP1;P1;durP2;ratioP2;P2;SDS_P1;SDS_P2;PMS_P1;PMS_P2;Temp;Humidity;BMP_temperature;BMP_pressure;BME280_temperature;BME280_humidity;BME280_pressure;Samples;Min_cycle;Max_cycle;Signal;HPM_P1;HPM_P2
2023/09/16 06:53:10;;;;;;;7.65;3.00;;;;;;;14.70;74.83;100669.94;5686267;23;20142;-93
2023/09/16 06:55:36;;;;;;;6.07;2.57;;;;;;;14.60;74.89;100643.44;4889219;29;20111;-90
2023/09/16 06:58:04;;;;;;;4.97;2.38;;;;;;;14.71;74.56;100663.34;4912921;29;20071;-89
2023/09/16 07:01:06;;;;;;;10.85;4.78;;;;;;;14.95;74.25;100690.63;4924752;29;20055;-92
2023/09/16 07:03:35;;;;;;;15.93;2.58;;;;;;;14.83;73.35;100673.81;4915642;29;20039;-88
2023/09/16 07:06:03;;;;;;;12.55;3.53;;;;;;;15.02;73.30;100675.31;4934597;29;20051;-88
2023/09/16 07:08:30;;;;;;;5.82;2.47;;;;;;;14.96;73.72;100659.19;4938943;29;20043;-91
2023/09/16 07:10:57;;;;;;;8.50;2.35;;;;;;;14.78;72.00;100631.50;4892832;29;20055;-89
2023/09/16 07:13:24;;;;;;;13.20;3.45;;;;;;;15.06;72.13;100689.28;4933675;29;20160;-89
2023/09/16 07:15:56;;;;;;;6.63;2.50;;;;;;;14.82;71.45;100633.66;4933970;29;20094;-90
2023/09/16 07:18:22;;;;;;;6.50;1.80;;;;;;;14.80;70.28;100629.28;4890462;29;20080;-88
2023/09/16 07:20:58;;;;;;;;;;;;;;;15.31;70.28;100692.59;4928745;29;20075;-88
2023/09/16 07:23:50;;;;;;;9.68;2.75;;;;;;;15.24;69.56;100704.84;4898664;29;19930;-89
2023/09/16 07:26:16;;;;;;;19.00;3.60;;;;;;;14.89;70.47;100689.09;4896573;29;20044;-89
2023/09/16 07:29:32;;;;;;;15.17;2.30;;;;;;;15.11;70.47;100704.88;4880092;29;20060;-90
2023/09/16 07:32:01;;;;;;;9.90;3.08;;;;;;;15.06;70.62;100711.31;4895365;23;20739;-87
2023/09/16 07:35:27;;;;;;;;;;;;;;;;;;;;;
2023/09/16 07:38:31;;;;;;;10.20;2.78;;;;;;;14.64;70.80;100661.00;4908489;29;20047;-91
2023/09/16 07:40:58;;;;;;;9.98;2.90;;;;;;;14.69;70.65;100671.88;4908053;29;20084;-91
2023/09/16 07:43:29;;;;;;;7.95;2.53;;;;;;;14.79;70.82;100729.50;4895833;29;20048;-89
2023/09/16 07:45:58;;;;;;;9.27;3.10;;;;;;;14.57;71.36;100701.88;4892673;29;20036;-91
2023/09/16 07:48:25;;;;;;;11.93;3.15;;;;;;;14.63;71.00;100700.63;4878072;29;20076;-91
2023/09/16 07:50:54;;;;;;;11.02;3.10;;;;;;;14.68;71.13;100683.22;4910157;29;20041;-92
2023/09/16 07:53:23;;;;;;;23.52;3.55;;;;;;;14.74;70.38;100685.56;4880260;29;20068;-90
2023/09/16 07:55:49;;;;;;;4.60;2.47;;;;;;;15.07;69.54;100723.97;4910115;29;20040;-88
2023/09/16 07:58:15;;;;;;;14.80;3.47;;;;;;;14.60;69.92;100645.38;4896031;29;20137;-89
2023/09/16 08:00:43;;;;;;;5.95;2.70;;;;;;;15.11;69.60;100729.69;4908196;29;20049;-88
2023/09/16 08:03:09;;;;;;;7.40;2.97;;;;;;;15.00;69.32;100709.81;4903768;29;20494;-87
2023/09/16 08:05:35;;;;;;;9.48;3.25;;;;;;;15.09;68.83;100704.38;4904306;29;20584;-87
2023/09/16 08:08:02;;;;;;;8.60;2.45;;;;;;;14.99;67.51;100686.13;4903366;29;20056;-89
2023/09/16 08:10:29;;;;;;;;;;;;;;;15.36;66.90;100734.59;4890620;29;20063;-87
2023/09/16 08:13:20;;;;;;;;;;;;;;;15.23;66.38;100743.72;4863957;29;19923;-90
2023/09/16 08:15:48;;;;;;;7.57;2.42;;;;;;;15.21;66.91;100699.97;4914092;29;19927;-92
2023/09/16 08:18:33;;;;;;;7.68;2.50;;;;;;;15.59;66.39;100737.38;4830315;29;20077;-94
2023/09/16 08:21:01;;;;;;;18.23;3.13;;;;;;;15.64;65.86;100738.09;4846504;29;20201;-92
2023/09/16 08:23:53;;;;;;;7.57;2.58;;;;;;;15.44;65.94;100725.59;4799056;29;20041;-92
2023/09/16 08:27:07;;;;;;;7.28;3.30;;;;;;;15.44;66.76;100731.13;4851239;29;20040;-93
2023/09/16 08:30:06;;;;;;;15.20;3.88;;;;;;;15.26;66.54;100688.84;4847096;29;20113;-91
2023/09/16 08:32:36;;;;;;;8.57;3.33;;;;;;;15.64;65.50;100757.41;4834597;29;20061;-92
2023/09/16 08:35:06;;;;;;;9.38;3.67;;;;;;;15.25;65.66;100730.44;4833597;29;20057;-91
2023/09/16 08:37:35;;;;;;;8.77;3.10;;;;;;;14.97;65.46;100718.69;4829471;29;20031;-91
2023/09/16 08:40:02;;;;;;;6.47;2.83;;;;;;;15.24;65.81;100759.94;4827053;29;20138;-91
2023/09/16 08:43:11;;;;;;;9.95;3.35;;;;;;;15.31;65.34;100762.28;4829025;29;20117;-90
2023/09/16 08:45:54;;;;;;;11.82;3.20;;;;;;;15.24;65.11;100726.88;4743403;30;20047;-92
2023/09/16 08:48:26;;;;;;;9.45;2.95;;;;;;;15.42;65.78;100749.09;4772493;30;20063;-91
2023/09/16 08:50:54;;;;;;;9.88;3.58;;;;;;;15.71;65.17;100765.25;4773339;30;20055;-92
2023/09/16 08:53:29;;;;;;;12.60;3.22;;;;;;;15.47;63.81;100779.31;4745567;30;20056;-91
2023/09/16 08:55:56;;;;;;;6.28;2.88;;;;;;;15.39;63.96;100771.75;4814262;29;20061;-90
2023/09/16 08:58:24;;;;;;;6.43;2.83;;;;;;;15.05;64.31;100753.75;4824248;29;20055;-89
2023/09/16 09:00:51;;;;;;;16.63;5.53;;;;;;;15.02;64.87;100735.88;4816634;29;20030;-89
2023/09/16 09:03:27;;;;;;;7.22;2.90;;;;;;;15.22;64.99;100772.41;4817685;29;20137;-88
2023/09/16 09:05:54;;;;;;;14.85;3.67;;;;;;;15.04;64.95;100744.69;4857439;29;20106;-88
2023/09/16 09:08:20;;;;;;;27.33;3.85;;;;;;;15.16;65.17;100755.16;4840798;29;20034;-89
2023/09/16 09:10:49;;;;;;;12.43;3.08;;;;;;;15.38;64.24;100776.44;4847436;29;20053;-87
2023/09/16 09:13:16;;;;;;;11.32;4.28;;;;;;;15.35;63.98;100756.97;4834386;29;20054;-90
2023/09/16 09:15:47;;;;;;;7.80;2.53;;;;;;;15.41;62.92;100761.25;4836540;29;20038;-90
2023/09/16 09:18:17;;;;;;;9.13;3.10;;;;;;;15.28;62.67;100738.91;4838054;29;20376;-88
2023/09/16 09:20:44;;;;;;;10.05;3.75;;;;;;;15.69;61.89;100787.66;4888114;29;20056;-87
2023/09/16 09:23:10;;;;;;;18.65;3.50;;;;;;;15.65;61.31;100759.00;4888259;29;20040;-88
2023/09/16 09:25:44;;;;;;;9.40;3.10;;;;;;;15.77;61.58;100765.97;4862265;29;20060;-88
2023/09/16 09:28:28;;;;;;;3.92;2.60;;;;;;;15.88;60.39;100772.84;4890095;29;20056;-87
2023/09/16 09:30:59;;;;;;;6.15;2.97;;;;;;;16.18;60.35;100790.59;4896771;29;20053;-87
2023/09/16 09:33:29;;;;;;;12.88;3.05;;;;;;;16.10;60.09;100770.09;4893927;29;20585;-89
2023/09/16 09:36:30;;;;;;;15.50;3.40;;;;;;;16.25;58.91;100793.72;4891037;29;20053;-89
2023/09/16 09:38:58;;;;;;;12.05;3.22;;;;;;;15.85;58.45;100754.19;4853741;29;20046;-91
2023/09/16 09:41:41;;;;;;;10.05;2.60;;;;;;;15.99;58.61;100793.53;4846349;29;20046;-89
2023/09/16 09:44:09;;;;;;;10.73;2.65;;;;;;;15.83;59.78;100757.25;4857211;29;20097;-91
2023/09/16 09:46:37;;;;;;;7.78;2.80;;;;;;;16.11;59.35;100785.50;4830370;29;20093;-89
2023/09/16 09:49:05;;;;;;;8.23;2.88;;;;;;;15.87;58.99;100749.16;4828036;29;20119;-88
2023/09/16 09:51:33;;;;;;;14.00;3.25;;;;;;;16.01;59.46;100782.19;4823455;29;20046;-92
2023/09/16 09:53:59;;;;;;;7.18;3.08;;;;;;;16.24;60.64;100791.28;4822693;29;20041;-90
2023/09/16 09:56:27;;;;;;;7.78;3.15;;;;;;;16.05;59.27;100774.91;4848913;29;20050;-89
2023/09/16 09:58:54;;;;;;;14.38;2.92;;;;;;;16.08;59.39;100760.50;4859563;29;20079;-92
2023/09/16 10:01:22;;;;;;;4.50;2.92;;;;;;;16.18;57.65;100807.16;4855346;29;20029;-89
2023/09/16 10:04:15;;;;;;;10.05;3.50;;;;;;;16.34;58.12;100804.81;4795845;30;20056;-90
2023/09/16 10:06:41;;;;;;;6.53;3.03;;;;;;;16.38;56.85;100797.53;4792720;30;20047;-90
2023/09/16 10:09:08;;;;;;;8.00;2.90;;;;;;;16.11;57.61;100751.59;4816647;29;20071;-89
2023/09/16 10:11:36;;;;;;;12.60;3.03;;;;;;;16.05;57.98;100747.34;4816899;29;20077;-90
2023/09/16 10:14:09;;;;;;;5.13;2.78;;;;;;;16.55;57.08;100818.91;4799603;29;20051;-91
2023/09/16 10:16:37;;;;;;;10.77;3.45;;;;;;;16.20;57.29;100764.31;4817663;29;20469;-91
2023/09/16 10:19:09;;;;;;;28.50;6.00;;;;;;;16.37;58.05;100776.59;4862581;29;20044;-91
2023/09/16 10:21:37;;;;;;;12.10;4.13;;;;;;;16.75;56.79;100821.16;4812183;29;20042;-92
2023/09/16 10:24:11;;;;;;;17.45;3.90;;;;;;;16.73;57.75;100814.31;4881300;23;20055;-93
2023/09/16 10:26:42;;;;;;;9.70;3.83;;;;;;;16.39;56.74;100768.78;4899338;29;20024;-90
2023/09/16 10:29:15;;;;;;;22.77;4.20;;;;;;;16.20;57.76;100753.28;4878283;29;20429;-92
2023/09/16 10:32:29;;;;;;;11.80;2.90;;;;;;;16.35;55.60;100821.06;5452601;23;20052;-90
2023/09/16 11:15:49;;;;;;;10.32;3.38;;;;;;;16.93;57.72;100818.47;4083908;23;20060;-90
2023/09/16 11:54:09;;;;;;;10.68;3.42;;;;;;;15.81;56.22;100770.53;5232821;23;20044;-96
2023/09/16 12:47:01;;;;;;;15.75;3.45;;;;;;;15.88;53.99;100797.69;4738602;23;20319;-92
2023/09/16 12:49:35;;;;;;;17.23;3.30;;;;;;;15.52;54.77;100740.59;4885963;29;20576;-93
2023/09/16 12:52:13;;;;;;;17.95;3.75;;;;;;;15.65;54.09;100764.53;4883266;29;20040;-94
2023/09/16 12:54:46;;;;;;;10.35;3.22;;;;;;;16.05;53.99;100819.88;5254230;23;20051;-92
2023/09/16 12:57:16;;;;;;;12.43;3.60;;;;;;;16.10;53.25;100796.88;4881825;29;20049;-93
2023/09/16 13:00:31;;;;;;;13.05;3.78;;;;;;;16.27;53.30;100779.63;4882245;29;20072;-91
2023/09/16 13:03:23;;;;;;;9.15;3.70;;;;;;;16.29;53.33;100728.50;4905083;29;20028;-95
2023/09/16 13:06:26;;;;;;;10.52;3.47;;;;;;;16.50;52.02;100720.47;4893277;29;20028;-96
2023/09/16 13:19:00;;;;;;;34.42;4.38;;;;;;;16.80;50.37;100782.34;4920319;29;20063;-94
2023/09/16 13:27:34;;;;;;;10.07;3.30;;;;;;;17.19;51.30;100800.03;5999973;23;20003;31
2023/09/16 13:31:11;;;;;;;24.83;4.10;;;;;;;16.58;51.33;100713.34;4844323;29;20065;-95
2023/09/16 13:34:05;;;;;;;14.38;3.72;;;;;;;16.45;49.51;100726.94;4792124;30;20055;-94
2023/09/16 13:37:00;;;;;;;115.78;11.18;;;;;;;16.73;50.60;100792.22;4787276;30;20371;-93
2023/09/16 13:39:28;;;;;;;42.15;5.28;;;;;;;16.66;50.48;100793.47;4782234;30;20055;-92
2023/09/16 13:41:56;;;;;;;23.95;3.80;;;;;;;16.31;51.21;100741.97;4767113;30;20685;-93
2023/09/16 13:44:47;;;;;;;15.07;4.40;;;;;;;16.52;50.86;100800.22;4779804;30;20085;-92
2023/09/16 13:47:28;;;;;;;16.63;4.05;;;;;;;16.47;51.79;100786.56;4729985;30;20072;-94
2023/09/16 13:49:54;;;;;;;23.58;3.90;;;;;;;16.12;52.18;100740.22;4743808;30;20284;-92
2023/09/16 13:52:26;;;;;;;23.85;4.40;;;;;;;16.52;51.75;100806.53;4732664;30;20072;-93
2023/09/16 13:55:18;;;;;;;16.27;4.18;;;;;;;16.30;52.88;100773.47;4732472;30;20052;-92
2023/09/16 13:57:51;;;;;;;26.55;5.05;;;;;;;16.31;50.91;100792.47;4741350;30;20512;-88
2023/09/16 14:00:19;;;;;;;34.03;4.68;;;;;;;15.94;51.19;100752.31;4739640;30;20063;-89
2023/09/16 14:02:49;;;;;;;43.28;6.75;;;;;;;16.09;51.13;100792.47;4725343;30;20175;-87
2023/09/16 14:05:22;;;;;;;;;;;;;;;16.32;51.74;100818.91;4741954;30;20063;-87
2023/09/16 14:07:48;;;;;;;25.93;4.70;;;;;;;16.07;51.27;100770.72;4749919;30;19922;-87
2023/09/16 14:10:17;;;;;;;20.92;4.70;;;;;;;16.19;52.16;100783.94;4746587;30;20655;-90
2023/09/16 14:13:08;;;;;;;29.05;4.63;;;;;;;16.18;51.20;100796.09;4796694;30;20062;-88
2023/09/16 14:15:40;;;;;;;30.08;4.55;;;;;;;16.37;50.63;100818.81;4802754;30;20043;-89
2023/09/16 14:18:11;;;;;;;41.53;4.65;;;;;;;16.50;51.65;100811.56;4792106;29;20055;-91
2023/09/16 14:20:39;;;;;;;26.00;3.65;;;;;;;16.37;50.52;100804.19;4766846;30;20115;-91
2023/09/16 14:23:28;;;;;;;16.63;4.20;;;;;;;16.65;51.38;100821.38;4702430;30;20061;-93
2023/09/16 14:26:03;;;;;;;63.20;5.03;;;;;;;16.31;50.74;100772.34;4713413;30;20060;-93
2023/09/16 14:28:31;;;;;;;13.73;3.40;;;;;;;16.52;49.93;100827.81;4719960;30;20105;-93
2023/09/16 14:31:42;;;;;;;38.22;5.00;;;;;;;16.44;51.45;100840.44;4717027;30;20045;-96
2023/09/16 14:34:11;;;;;;;33.53;4.57;;;;;;;16.19;50.85;100800.50;4730654;30;20045;-91
2023/09/16 14:36:37;;;;;;;24.75;4.30;;;;;;;16.30;51.32;100825.91;4713252;30;20049;-93
2023/09/16 14:39:28;;;;;;;16.40;3.67;;;;;;;16.22;52.55;100821.94;5018248;23;20062;-95
2023/09/16 14:41:55;;;;;;;13.82;3.30;;;;;;;16.07;50.71;100834.19;4921473;29;20068;-91
2023/09/16 14:44:24;;;;;;;11.73;3.13;;;;;;;15.80;51.64;100837.84;4927151;29;20051;-93
2023/09/16 14:46:54;;;;;;;7.88;2.97;;;;;;;15.94;53.08;100848.84;4905924;29;20059;-92
2023/09/16 14:49:27;;;;;;;13.77;3.40;;;;;;;15.97;51.72;100851.78;4908529;29;20044;-92
2023/09/16 14:52:04;;;;;;;12.77;3.83;;;;;;;15.93;51.81;100849.97;4897624;29;20123;-87
2023/09/16 14:57:23;;;;;;;33.83;4.10;;;;;;;15.50;53.23;100840.13;4903073;29;20040;-91
2023/09/16 14:59:50;;;;;;;7.65;2.88;;;;;;;15.27;54.10;100803.41;4891235;29;20044;-88
2023/09/16 15:02:36;;;;;;;;;;;;;;;15.71;55.61;100846.03;4879788;29;20115;-88
2023/09/16 15:05:02;;;;;;;7.72;2.80;;;;;;;16.02;54.09;100848.06;4900776;29;20066;-86
2023/09/16 15:07:38;;;;;;;8.88;3.30;;;;;;;16.01;52.77;100842.88;4892103;29;20036;-90
2023/09/16 15:10:27;;;;;;;5.82;3.15;;;;;;;15.27;53.60;100775.06;4887960;29;20067;-87
2023/09/16 15:37:30;;;;;;;12.55;2.92;;;;;;;14.37;56.82;100853.53;4922291;29;20056;-88
2023/09/16 15:40:19;;;;;;;7.57;2.80;;;;;;;14.29;57.02;100844.88;4918267;29;20060;-90
2023/09/16 15:43:03;;;;;;;7.45;2.67;;;;;;;14.00;57.20;100814.78;4913791;29;20115;-91
2023/09/16 15:45:39;;;;;;;5.50;2.35;;;;;;;14.18;57.12;100848.09;4899184;29;20051;-89
2023/09/16 15:48:06;;;;;;;9.57;2.72;;;;;;;13.59;57.34;100748.66;4875012;29;20036;-91
2023/09/16 15:50:48;;;;;;;8.60;2.90;;;;;;;14.09;57.54;100842.44;4899408;29;20040;-87
2023/09/16 15:53:15;;;;;;;10.82;3.17;;;;;;;13.63;57.62;100779.91;4883913;29;20100;-89
2023/09/16 15:55:47;;;;;;;8.10;2.50;;;;;;;13.57;58.11;100778.34;4879549;29;20027;-93
2023/09/16 15:58:16;;;;;;;14.75;2.90;;;;;;;13.62;58.09;100794.78;4905956;29;20048;-87
2023/09/16 16:01:24;;;;;;;6.43;2.95;;;;;;;13.60;58.00;100799.75;4936519;29;20060;-91
2023/09/16 16:03:51;;;;;;;11.52;2.80;;;;;;;13.50;58.63;100784.22;4908202;29;20099;-89
2023/09/16 16:06:18;;;;;;;;;;;;;;;13.90;58.33;100847.94;4925074;29;20020;-92
2023/09/16 16:09:50;;;;;;;23.45;3.17;;;;;;;13.84;58.57;100847.22;4939139;29;19938;-92
2023/09/16 16:16:42;;;;;;;7.50;3.20;;;;;;;13.80;58.60;100859.09;4956541;29;20048;-93
2023/09/16 16:28:17;;;;;;;11.38;4.68;;;;;;;13.63;59.97;100865.91;516541;27;20295;-89
2023/09/16 16:31:12;;;;;;;15.48;3.88;;;;;;;13.30;60.10;100828.44;4920561;29;20040;-92
2023/09/16 16:34:41;;;;;;;18.58;4.25;;;;;;;13.49;61.70;100876.00;4901026;29;20052;-93
2023/09/16 16:37:11;;;;;;;36.22;5.10;;;;;;;12.97;61.15;100813.72;4887636;29;20039;-90
2023/09/16 16:39:44;;;;;;;149.73;9.40;;;;;;;13.23;60.99;100855.41;4905138;29;20076;-90
2023/09/16 16:42:10;;;;;;;36.63;4.80;;;;;;;12.88;61.63;100789.66;4871001;29;20080;-89
2023/09/16 16:44:39;;;;;;;11.75;4.25;;;;;;;13.36;61.92;100876.72;4865637;29;20051;-88
2023/09/16 16:47:13;;;;;;;25.90;6.90;;;;;;;13.18;62.31;100864.56;4861327;29;20469;-91
2023/09/16 16:49:58;;;;;;;21.55;6.45;;;;;;;12.73;61.40;100806.28;4866098;29;20057;-90
2023/09/16 16:53:22;;;;;;;38.95;6.15;;;;;;;13.24;62.31;100881.75;4852895;29;20117;-89
2023/09/16 16:55:48;;;;;;;17.92;7.22;;;;;;;12.86;62.71;100824.81;4862926;29;20050;-90
2023/09/16 16:58:17;;;;;;;11.30;5.25;;;;;;;12.84;61.64;100821.53;4876980;29;20045;-90
2023/09/16 17:00:44;;;;;;;24.88;5.82;;;;;;;13.04;61.77;100864.41;4833568;29;20057;-91
2023/09/16 17:03:19;;;;;;;20.58;5.72;;;;;;;13.02;61.85;100854.84;4861201;29;20104;-90
2023/09/16 17:06:04;;;;;;;33.90;6.75;;;;;;;12.83;63.19;100825.38;4880148;29;20542;-89
2023/09/16 17:09:03;;;;;;;30.02;6.80;;;;;;;12.92;65.32;100833.81;4877343;24;20048;-89
2023/09/16 17:11:30;;;;;;;28.13;7.40;;;;;;;12.94;62.90;100840.63;4912004;29;20101;-90
2023/09/16 17:13:58;;;;;;;10.23;5.10;;;;;;;13.01;62.11;100859.50;4863841;29;20045;-90
2023/09/16 17:19:16;;;;;;;24.83;6.53;;;;;;;13.16;63.03;100885.97;4903015;29;20183;-89
2023/09/16 17:22:09;;;;;;;25.40;7.72;;;;;;;13.04;64.06;100882.81;4879453;29;20048;-91
2023/09/16 17:24:38;;;;;;;27.05;8.32;;;;;;;12.58;64.28;100828.38;4912725;29;20068;-90
2023/09/16 17:33:03;;;;;;;12.98;6.20;;;;;;;12.29;63.15;100782.59;4860871;29;20056;-91
2023/09/16 17:35:36;;;;;;;24.58;10.70;;;;;;;12.46;64.46;100806.84;4793208;29;20087;-89
2023/09/16 17:38:14;;;;;;;21.15;9.05;;;;;;;12.39;64.40;100789.91;4855082;29;20048;-91
2023/09/16 17:40:46;;;;;;;33.58;13.73;;;;;;;12.74;65.20;100878.44;4849879;29;20062;-87
2023/09/16 17:43:15;;;;;;;38.50;12.45;;;;;;;12.22;65.81;100810.34;4835015;29;20069;-89
2023/09/16 17:45:46;;;;;;;21.40;9.90;;;;;;;12.45;65.73;100846.38;4832343;29;20049;-87
2023/09/16 17:48:21;;;;;;;49.60;15.10;;;;;;;12.31;65.45;100824.25;4827296;29;20050;-84
2023/09/16 17:50:50;;;;;;;41.22;16.17;;;;;;;12.53;66.31;100880.56;4819641;29;20046;-92
2023/09/16 17:53:25;;;;;;;40.47;17.30;;;;;;;12.24;66.44;100848.44;4833256;29;20175;-89
2023/09/16 17:56:43;;;;;;;46.95;17.83;;;;;;;12.26;66.81;100846.25;4839521;29;20045;-87
2023/09/16 17:59:49;;;;;;;76.88;16.00;;;;;;;12.35;67.16;100865.63;4856644;29;20069;-87
2023/09/16 18:02:19;;;;;;;52.13;10.53;;;;;;;11.96;67.73;100808.91;4800767;30;20177;-91
2023/09/16 18:04:49;;;;;;;29.13;9.07;;;;;;;12.12;67.50;100837.00;4803225;30;20560;-87
2023/09/16 18:07:28;;;;;;;19.27;8.80;;;;;;;12.18;67.85;100855.06;4814433;29;20101;-87
2023/09/16 18:10:17;;;;;;;24.90;9.80;;;;;;;12.22;67.79;100865.19;4861774;29;20070;-90
2023/09/16 18:13:36;;;;;;;25.33;9.57;;;;;;;12.28;68.58;100870.63;4860186;29;20048;-89
2023/09/16 18:16:05;;;;;;;33.35;10.63;;;;;;;11.88;68.11;100815.81;4833244;29;20140;-87
2023/09/16 18:18:31;;;;;;;25.83;7.22;;;;;;;11.77;67.50;100812.28;4853458;29;20037;-87
2023/09/16 18:21:26;;;;;;;40.80;10.32;;;;;;;12.06;67.55;100855.44;4829973;29;20109;-86
2023/09/16 18:23:54;;;;;;;14.80;5.93;;;;;;;11.84;66.88;100809.25;4836503;29;20070;-91
2023/09/16 18:26:22;;;;;;;23.63;9.07;;;;;;;11.97;67.55;100836.03;4812444;29;20069;-90
2023/09/16 18:28:52;;;;;;;16.98;8.20;;;;;;;12.21;67.91;100874.50;4827999;29;20056;-85
2023/09/16 18:31:43;;;;;;;14.38;4.50;;;;;;;12.13;66.42;100861.41;4823479;29;20050;-85
2023/09/16 18:34:11;;;;;;;26.20;7.95;;;;;;;12.29;67.07;100870.34;4844744;29;20050;-90
2023/09/16 18:36:40;;;;;;;21.50;5.22;;;;;;;12.12;65.83;100837.00;4853059;29;20139;-90
2023/09/16 18:39:10;;;;;;;20.13;5.60;;;;;;;12.06;66.42;100828.03;4861400;29;20049;-91
2023/09/16 18:41:43;;;;;;;15.23;5.43;;;;;;;12.36;66.51;100879.06;4870993;29;20041;-91
2023/09/16 18:44:36;;;;;;;23.42;6.53;;;;;;;12.49;66.01;100877.59;4841618;29;20050;-91
2023/09/16 18:47:09;;;;;;;22.48;7.50;;;;;;;11.92;66.24;100789.47;4837403;29;20054;-90
2023/09/16 18:49:52;;;;;;;27.05;7.30;;;;;;;11.92;67.36;100822.38;4861607;29;20058;-89
2023/09/16 18:52:21;;;;;;;23.80;7.72;;;;;;;11.87;67.91;100811.44;4861019;29;20053;-91
2023/09/16 19:01:30;;;;;;;38.22;7.15;;;;;;;12.03;67.52;100844.22;5162962;23;20048;-90
2023/09/16 19:03:56;;;;;;;;;;;;;;;12.22;68.52;100865.19;4868504;29;20044;-90
2023/09/16 19:06:23;;;;;;;25.98;6.43;;;;;;;12.26;67.29;100870.91;4899564;29;20380;-91
2023/09/16 19:08:51;;;;;;;24.02;7.63;;;;;;;12.26;67.50;100868.16;4886396;29;20059;-92
2023/09/16 19:11:18;;;;;;;30.65;10.73;;;;;;;11.99;67.24;100833.00;4873063;29;20048;-95
2023/09/16 19:13:46;;;;;;;43.90;11.52;;;;;;;12.13;67.59;100852.38;4888968;29;20049;-92
2023/09/16 19:16:15;;;;;;;35.92;16.13;;;;;;;12.03;67.90;100846.97;4886652;29;20037;-92
2023/09/16 19:18:43;;;;;;;38.42;19.38;;;;;;;11.96;67.90;100841.81;4908885;29;20051;-89
2023/09/16 19:21:10;;;;;;;69.57;29.15;;;;;;;11.88;68.68;100858.84;4922269;29;20036;-87
2023/09/16 19:23:37;;;;;;;98.40;41.75;;;;;;;11.97;69.02;100874.41;4887740;29;20063;-89
2023/09/16 19:26:06;;;;;;;114.45;48.80;;;;;;;12.07;69.47;100894.63;4910114;29;20393;-90
2023/09/16 19:28:33;;;;;;;137.95;57.00;;;;;;;11.81;68.84;100844.59;4915150;29;20058;-89
2023/09/16 19:31:01;;;;;;;110.72;47.20;;;;;;;11.89;68.47;100866.78;4897181;29;20051;-88
2023/09/16 19:33:29;;;;;;;109.28;49.55;;;;;;;11.98;68.87;100886.97;4927358;29;20048;-93
2023/09/16 19:36:00;;;;;;;137.70;50.08;;;;;;;12.03;68.75;100893.56;4915120;29;20040;-89
2023/09/16 19:38:28;;;;;;;97.47;42.05;;;;;;;11.90;68.56;100879.38;4877157;29;20585;-92
2023/09/16 19:40:55;;;;;;;108.90;43.55;;;;;;;11.87;69.05;100873.66;4935182;29;20040;-87
2023/09/16 19:43:21;;;;;;;81.35;33.78;;;;;;;11.80;69.04;100871.19;4929391;29;20040;-91
2023/09/16 19:45:47;;;;;;;56.03;23.50;;;;;;;11.67;69.51;100863.59;4907969;29;20139;-94
2023/09/16 19:48:14;;;;;;;93.82;31.13;;;;;;;11.63;69.37;100857.84;4925577;29;20039;-90
2023/09/16 19:50:42;;;;;;;49.85;22.15;;;;;;;11.58;68.76;100837.88;4878892;29;20119;-87
2023/09/16 19:53:09;;;;;;;105.53;25.30;;;;;;;11.76;68.98;100883.81;4907095;29;20043;-92
2023/09/16 19:55:38;;;;;;;76.82;22.48;;;;;;;11.64;68.92;100872.38;4890799;29;20044;-92
2023/09/16 19:58:04;;;;;;;65.68;21.40;;;;;;;11.63;69.15;100882.50;4893646;29;20044;-92
2023/09/16 20:00:32;;;;;;;27.88;12.20;;;;;;;11.52;69.00;100868.06;4884167;29;20071;-89
2023/09/16 20:03:01;;;;;;;41.35;16.92;;;;;;;11.63;68.60;100876.22;4882239;29;20051;-89
2023/09/16 20:05:28;;;;;;;58.08;17.73;;;;;;;11.57;68.71;100869.94;4929206;29;20527;-91
